sensor_id;sensor_type;location;lat;lon;timestamp;P1;durP1;ratioP1;P2;durP2;ratioP2
70213;SDS011;60138;55.808;37.078;2022-09-03T00:00:53;3.90;;;3.33;;
70213;SDS011;60138;55.808;37.078;2022-09-03T00:03:30;5.93;;;2.72;;
70213;SDS011;60138;55.808;37.078;2022-09-03T00:06:19;4.68;;;3.80;;
70213;SDS011;60138;55.808;37.078;2022-09-03T00:16:45;3.72;;;2.90;;
70213;SDS011;60138;55.808;37.078;2022-09-03T00:19:15;3.80;;;3.20;;
70213;SDS011;60138;55.808;37.078;2022-09-03T00:21:45;3.73;;;2.50;;
70213;SDS011;60138;55.808;37.078;2022-09-03T00:24:15;3.80;;;3.28;;
70213;SDS011;60138;55.808;37.078;2022-09-03T00:26:52;4.93;;;4.10;;
70213;SDS011;60138;55.808;37.078;2022-09-03T00:29:23;4.05;;;2.83;;
70213;SDS011;60138;55.808;37.078;2022-09-03T00:31:53;6.60;;;3.90;;
70213;SDS011;60138;55.808;37.078;2022-09-03T00:34:29;8.07;;;3.80;;
70213;SDS011;60138;55.808;37.078;2022-09-03T00:37:03;4.00;;;2.85;;
70213;SDS011;60138;55.808;37.078;2022-09-03T00:39:29;5.43;;;3.30;;
70213;SDS011;60138;55.808;37.078;2022-09-03T00:44:56;5.07;;;3.30;;
70213;SDS011;60138;55.808;37.078;2022-09-03T01:01:04;5.78;;;4.03;;
70213;SDS011;60138;55.808;37.078;2022-09-03T01:03:42;4.85;;;3.83;;
70213;SDS011;60138;55.808;37.078;2022-09-03T01:06:32;4.47;;;3.90;;
70213;SDS011;60138;55.808;37.078;2022-09-03T01:12:30;4.20;;;3.60;;
70213;SDS011;60138;55.808;37.078;2022-09-03T01:15:31;4.43;;;3.33;;
70213;SDS011;60138;55.808;37.078;2022-09-03T01:23:38;5.13;;;4.53;;
70213;SDS011;60138;55.808;37.078;2022-09-03T01:26:31;6.47;;;3.93;;
70213;SDS011;60138;55.808;37.078;2022-09-03T01:31:48;3.80;;;3.13;;
70213;SDS011;60138;55.808;37.078;2022-09-03T01:39:37;4.80;;;3.90;;
70213;SDS011;60138;55.808;37.078;2022-09-03T01:42:48;4.55;;;3.58;;
70213;SDS011;60138;55.808;37.078;2022-09-03T01:53:26;5.05;;;4.35;;
70213;SDS011;60138;55.808;37.078;2022-09-03T01:58:53;7.10;;;4.65;;
70213;SDS011;60138;55.808;37.078;2022-09-03T02:01:31;4.00;;;3.30;;
70213;SDS011;60138;55.808;37.078;2022-09-03T02:04:01;4.10;;;3.47;;
70213;SDS011;60138;55.808;37.078;2022-09-03T02:06:40;5.18;;;4.45;;
70213;SDS011;60138;55.808;37.078;2022-09-03T02:09:06;5.43;;;4.53;;
70213;SDS011;60138;55.808;37.078;2022-09-03T02:11:32;7.20;;;3.60;;
70213;SDS011;60138;55.808;37.078;2022-09-03T02:13:58;6.30;;;3.70;;
70213;SDS011;60138;55.808;37.078;2022-09-03T02:16:26;4.70;;;3.72;;
70213;SDS011;60138;55.808;37.078;2022-09-03T02:19:06;4.45;;;3.65;;
70213;SDS011;60138;55.808;37.078;2022-09-03T02:21:37;6.38;;;4.18;;
70213;SDS011;60138;55.808;37.078;2022-09-03T02:24:11;8.35;;;4.18;;
70213;SDS011;60138;55.808;37.078;2022-09-03T02:26:36;5.57;;;3.70;;
70213;SDS011;60138;55.808;37.078;2022-09-03T02:29:02;4.87;;;4.23;;
70213;SDS011;60138;55.808;37.078;2022-09-03T02:31:28;5.00;;;3.70;;
70213;SDS011;60138;55.808;37.078;2022-09-03T02:33:55;4.57;;;3.60;;
70213;SDS011;60138;55.808;37.078;2022-09-03T02:36:26;4.88;;;4.07;;
70213;SDS011;60138;55.808;37.078;2022-09-03T02:38:58;5.85;;;4.28;;
70213;SDS011;60138;55.808;37.078;2022-09-03T02:41:23;4.90;;;3.47;;
70213;SDS011;60138;55.808;37.078;2022-09-03T02:43:51;5.93;;;3.83;;
70213;SDS011;60138;55.808;37.078;2022-09-03T02:46:27;5.40;;;3.75;;
70213;SDS011;60138;55.808;37.078;2022-09-03T02:48:59;5.18;;;4.13;;
70213;SDS011;60138;55.808;37.078;2022-09-03T02:51:24;5.53;;;4.47;;
70213;SDS011;60138;55.808;37.078;2022-09-03T02:53:50;7.57;;;4.82;;
70213;SDS011;60138;55.808;37.078;2022-09-03T02:56:16;6.00;;;3.95;;
70213;SDS011;60138;55.808;37.078;2022-09-03T02:58:42;5.47;;;4.53;;
70213;SDS011;60138;55.808;37.078;2022-09-03T03:01:07;5.97;;;4.07;;
70213;SDS011;60138;55.808;37.078;2022-09-03T03:03:33;4.83;;;3.87;;
70213;SDS011;60138;55.808;37.078;2022-09-03T03:05:59;5.65;;;4.15;;
70213;SDS011;60138;55.808;37.078;2022-09-03T03:08:27;6.50;;;3.70;;
70213;SDS011;60138;55.808;37.078;2022-09-03T03:10:54;5.43;;;3.40;;
70213;SDS011;60138;55.808;37.078;2022-09-03T03:13:21;6.15;;;4.38;;
70213;SDS011;60138;55.808;37.078;2022-09-03T03:15:47;5.28;;;4.47;;
70213;SDS011;60138;55.808;37.078;2022-09-03T03:18:13;6.37;;;4.97;;
70213;SDS011;60138;55.808;37.078;2022-09-03T03:20:40;5.25;;;4.05;;
70213;SDS011;60138;55.808;37.078;2022-09-03T03:23:06;5.70;;;4.15;;
70213;SDS011;60138;55.808;37.078;2022-09-03T03:25:36;4.90;;;4.40;;
70213;SDS011;60138;55.808;37.078;2022-09-03T03:28:03;6.03;;;3.73;;
70213;SDS011;60138;55.808;37.078;2022-09-03T03:30:29;4.70;;;3.33;;
70213;SDS011;60138;55.808;37.078;2022-09-03T03:32:56;6.00;;;4.20;;
70213;SDS011;60138;55.808;37.078;2022-09-03T03:35:22;3.90;;;3.17;;
70213;SDS011;60138;55.808;37.078;2022-09-03T03:37:48;6.88;;;4.45;;
70213;SDS011;60138;55.808;37.078;2022-09-03T03:40:14;7.07;;;4.90;;
70213;SDS011;60138;55.808;37.078;2022-09-03T03:42:40;5.18;;;4.45;;
70213;SDS011;60138;55.808;37.078;2022-09-03T03:45:06;4.90;;;3.83;;
70213;SDS011;60138;55.808;37.078;2022-09-03T03:47:32;8.95;;;4.35;;
70213;SDS011;60138;55.808;37.078;2022-09-03T03:49:58;5.03;;;4.37;;
70213;SDS011;60138;55.808;37.078;2022-09-03T03:52:24;4.85;;;4.30;;
70213;SDS011;60138;55.808;37.078;2022-09-03T03:54:51;5.85;;;4.05;;
70213;SDS011;60138;55.808;37.078;2022-09-03T03:57:17;4.97;;;3.90;;
70213;SDS011;60138;55.808;37.078;2022-09-03T03:59:44;4.30;;;3.23;;
70213;SDS011;60138;55.808;37.078;2022-09-03T04:02:10;4.22;;;3.17;;
70213;SDS011;60138;55.808;37.078;2022-09-03T04:04:36;4.85;;;3.90;;
70213;SDS011;60138;55.808;37.078;2022-09-03T04:07:02;4.28;;;3.28;;
70213;SDS011;60138;55.808;37.078;2022-09-03T04:09:28;5.43;;;3.43;;
70213;SDS011;60138;55.808;37.078;2022-09-03T04:11:54;4.18;;;3.78;;
70213;SDS011;60138;55.808;37.078;2022-09-03T04:14:19;5.03;;;4.53;;
70213;SDS011;60138;55.808;37.078;2022-09-03T04:16:45;5.63;;;3.72;;
70213;SDS011;60138;55.808;37.078;2022-09-03T04:19:11;3.90;;;3.00;;
70213;SDS011;60138;55.808;37.078;2022-09-03T04:21:37;4.28;;;3.17;;
70213;SDS011;60138;55.808;37.078;2022-09-03T04:24:04;4.10;;;3.47;;
70213;SDS011;60138;55.808;37.078;2022-09-03T04:26:31;4.83;;;2.97;;
70213;SDS011;60138;55.808;37.078;2022-09-03T04:28:58;3.83;;;2.88;;
70213;SDS011;60138;55.808;37.078;2022-09-03T04:31:24;4.38;;;3.55;;
70213;SDS011;60138;55.808;37.078;2022-09-03T04:33:50;3.70;;;3.17;;
70213;SDS011;60138;55.808;37.078;2022-09-03T04:36:17;4.13;;;3.50;;
70213;SDS011;60138;55.808;37.078;2022-09-03T04:38:45;4.72;;;4.32;;
70213;SDS011;60138;55.808;37.078;2022-09-03T04:41:13;4.57;;;3.17;;
70213;SDS011;60138;55.808;37.078;2022-09-03T04:43:41;3.40;;;3.03;;
70213;SDS011;60138;55.808;37.078;2022-09-03T04:46:06;5.75;;;3.00;;
70213;SDS011;60138;55.808;37.078;2022-09-03T04:48:33;4.93;;;3.70;;
70213;SDS011;60138;55.808;37.078;2022-09-03T04:51:03;3.07;;;2.63;;
70213;SDS011;60138;55.808;37.078;2022-09-03T04:53:34;4.03;;;3.55;;
70213;SDS011;60138;55.808;37.078;2022-09-03T04:56:01;4.57;;;3.15;;
70213;SDS011;60138;55.808;37.078;2022-09-03T04:58:28;3.85;;;2.92;;
70213;SDS011;60138;55.808;37.078;2022-09-03T05:00:53;4.70;;;4.30;;
70213;SDS011;60138;55.808;37.078;2022-09-03T05:03:19;3.97;;;3.45;;
70213;SDS011;60138;55.808;37.078;2022-09-03T05:05:54;5.05;;;3.85;;
70213;SDS011;60138;55.808;37.078;2022-09-03T05:08:21;3.50;;;2.93;;
70213;SDS011;60138;55.808;37.078;2022-09-03T05:10:47;4.03;;;3.25;;
70213;SDS011;60138;55.808;37.078;2022-09-03T05:13:13;3.80;;;2.83;;
70213;SDS011;60138;55.808;37.078;2022-09-03T05:15:39;3.77;;;3.10;;
70213;SDS011;60138;55.808;37.078;2022-09-03T05:18:04;3.65;;;3.03;;
70213;SDS011;60138;55.808;37.078;2022-09-03T05:20:30;4.73;;;3.37;;
70213;SDS011;60138;55.808;37.078;2022-09-03T05:22:56;3.53;;;2.88;;
70213;SDS011;60138;55.808;37.078;2022-09-03T05:25:22;3.90;;;3.57;;
70213;SDS011;60138;55.808;37.078;2022-09-03T05:27:48;3.75;;;2.95;;
70213;SDS011;60138;55.808;37.078;2022-09-03T05:30:14;3.20;;;2.50;;
70213;SDS011;60138;55.808;37.078;2022-09-03T05:32:40;3.50;;;3.13;;
70213;SDS011;60138;55.808;37.078;2022-09-03T05:35:07;3.05;;;2.75;;
70213;SDS011;60138;55.808;37.078;2022-09-03T05:37:33;3.78;;;3.38;;
70213;SDS011;60138;55.808;37.078;2022-09-03T05:39:59;4.20;;;3.63;;
70213;SDS011;60138;55.808;37.078;2022-09-03T05:42:24;2.90;;;2.60;;
70213;SDS011;60138;55.808;37.078;2022-09-03T05:44:50;3.77;;;3.40;;
70213;SDS011;60138;55.808;37.078;2022-09-03T05:47:16;3.90;;;3.55;;
70213;SDS011;60138;55.808;37.078;2022-09-03T05:49:42;3.50;;;3.20;;
70213;SDS011;60138;55.808;37.078;2022-09-03T05:52:07;3.80;;;3.38;;
70213;SDS011;60138;55.808;37.078;2022-09-03T05:54:33;4.10;;;3.10;;
70213;SDS011;60138;55.808;37.078;2022-09-03T05:56:58;3.80;;;2.60;;
70213;SDS011;60138;55.808;37.078;2022-09-03T05:59:24;4.00;;;3.00;;
70213;SDS011;60138;55.808;37.078;2022-09-03T06:01:50;3.70;;;2.80;;
70213;SDS011;60138;55.808;37.078;2022-09-03T06:04:15;3.20;;;2.53;;
70213;SDS011;60138;55.808;37.078;2022-09-03T06:06:42;3.70;;;3.37;;
70213;SDS011;60138;55.808;37.078;2022-09-03T06:09:10;3.72;;;3.42;;
70213;SDS011;60138;55.808;37.078;2022-09-03T06:11:40;3.70;;;2.78;;
70213;SDS011;60138;55.808;37.078;2022-09-03T06:14:07;4.85;;;4.00;;
70213;SDS011;60138;55.808;37.078;2022-09-03T06:16:38;3.47;;;2.50;;
70213;SDS011;60138;55.808;37.078;2022-09-03T06:19:08;3.80;;;3.13;;
70213;SDS011;60138;55.808;37.078;2022-09-03T06:21:39;6.07;;;3.40;;
70213;SDS011;60138;55.808;37.078;2022-09-03T06:24:05;7.07;;;2.70;;
70213;SDS011;60138;55.808;37.078;2022-09-03T06:26:31;3.87;;;3.30;;
70213;SDS011;60138;55.808;37.078;2022-09-03T06:28:57;3.95;;;2.97;;
70213;SDS011;60138;55.808;37.078;2022-09-03T06:31:23;5.70;;;3.43;;
70213;SDS011;60138;55.808;37.078;2022-09-03T06:33:49;4.88;;;2.80;;
70213;SDS011;60138;55.808;37.078;2022-09-03T06:36:18;3.77;;;3.30;;
70213;SDS011;60138;55.808;37.078;2022-09-03T06:38:44;4.07;;;3.28;;
70213;SDS011;60138;55.808;37.078;2022-09-03T06:41:12;3.55;;;2.83;;
70213;SDS011;60138;55.808;37.078;2022-09-03T06:43:42;4.90;;;3.55;;
70213;SDS011;60138;55.808;37.078;2022-09-03T06:46:09;4.83;;;2.80;;
70213;SDS011;60138;55.808;37.078;2022-09-03T06:48:36;3.35;;;2.70;;
70213;SDS011;60138;55.808;37.078;2022-09-03T06:51:03;3.95;;;3.40;;
70213;SDS011;60138;55.808;37.078;2022-09-03T06:53:32;3.97;;;2.90;;
70213;SDS011;60138;55.808;37.078;2022-09-03T06:56:00;4.45;;;3.67;;
70213;SDS011;60138;55.808;37.078;2022-09-03T06:58:40;3.80;;;3.03;;
70213;SDS011;60138;55.808;37.078;2022-09-03T07:01:08;3.83;;;2.75;;
70213;SDS011;60138;55.808;37.078;2022-09-03T07:03:39;4.70;;;3.22;;
70213;SDS011;60138;55.808;37.078;2022-09-03T07:06:10;3.03;;;2.42;;
70213;SDS011;60138;55.808;37.078;2022-09-03T07:08:40;3.83;;;3.42;;
70213;SDS011;60138;55.808;37.078;2022-09-03T07:11:08;3.97;;;2.77;;
70213;SDS011;60138;55.808;37.078;2022-09-03T07:13:36;4.80;;;3.47;;
70213;SDS011;60138;55.808;37.078;2022-09-03T07:16:04;4.50;;;3.47;;
70213;SDS011;60138;55.808;37.078;2022-09-03T07:18:31;3.70;;;2.30;;
70213;SDS011;60138;55.808;37.078;2022-09-03T07:20:58;2.97;;;2.30;;
70213;SDS011;60138;55.808;37.078;2022-09-03T07:23:25;4.07;;;2.60;;
70213;SDS011;60138;55.808;37.078;2022-09-03T07:25:53;3.28;;;2.53;;
70213;SDS011;60138;55.808;37.078;2022-09-03T07:28:19;3.67;;;2.60;;
70213;SDS011;60138;55.808;37.078;2022-09-03T07:30:45;3.03;;;2.37;;
70213;SDS011;60138;55.808;37.078;2022-09-03T07:33:11;2.60;;;2.13;;
70213;SDS011;60138;55.808;37.078;2022-09-03T07:35:36;3.77;;;2.60;;
70213;SDS011;60138;55.808;37.078;2022-09-03T07:38:02;4.72;;;2.50;;
70213;SDS011;60138;55.808;37.078;2022-09-03T07:40:27;2.90;;;2.53;;
70213;SDS011;60138;55.808;37.078;2022-09-03T07:42:56;3.00;;;2.28;;
70213;SDS011;60138;55.808;37.078;2022-09-03T07:45:22;4.80;;;2.60;;
70213;SDS011;60138;55.808;37.078;2022-09-03T07:47:47;4.13;;;2.08;;
70213;SDS011;60138;55.808;37.078;2022-09-03T07:50:13;2.87;;;2.20;;
70213;SDS011;60138;55.808;37.078;2022-09-03T07:52:39;2.60;;;2.30;;
70213;SDS011;60138;55.808;37.078;2022-09-03T07:55:05;4.13;;;2.30;;
70213;SDS011;60138;55.808;37.078;2022-09-03T07:57:31;2.88;;;2.28;;
70213;SDS011;60138;55.808;37.078;2022-09-03T07:59:57;2.80;;;2.60;;
70213;SDS011;60138;55.808;37.078;2022-09-03T08:02:22;2.75;;;2.05;;
70213;SDS011;60138;55.808;37.078;2022-09-03T08:04:48;2.13;;;1.93;;
70213;SDS011;60138;55.808;37.078;2022-09-03T08:07:14;4.25;;;2.25;;
70213;SDS011;60138;55.808;37.078;2022-09-03T08:09:39;3.50;;;2.50;;
70213;SDS011;60138;55.808;37.078;2022-09-03T08:12:05;2.78;;;2.08;;
70213;SDS011;60138;55.808;37.078;2022-09-03T08:14:31;5.27;;;2.30;;
70213;SDS011;60138;55.808;37.078;2022-09-03T08:16:56;5.47;;;2.35;;
70213;SDS011;60138;55.808;37.078;2022-09-03T08:19:22;3.53;;;2.73;;
70213;SDS011;60138;55.808;37.078;2022-09-03T08:21:48;2.65;;;1.88;;
70213;SDS011;60138;55.808;37.078;2022-09-03T08:24:15;2.17;;;1.70;;
70213;SDS011;60138;55.808;37.078;2022-09-03T08:26:42;4.93;;;1.75;;
70213;SDS011;60138;55.808;37.078;2022-09-03T08:29:07;3.90;;;1.90;;
70213;SDS011;60138;55.808;37.078;2022-09-03T08:31:33;1.80;;;1.17;;
70213;SDS011;60138;55.808;37.078;2022-09-03T08:34:00;5.60;;;1.50;;
70213;SDS011;60138;55.808;37.078;2022-09-03T08:36:28;7.47;;;2.10;;
70213;SDS011;60138;55.808;37.078;2022-09-03T08:38:55;3.58;;;1.63;;
70213;SDS011;60138;55.808;37.078;2022-09-03T08:41:32;2.40;;;2.07;;
70213;SDS011;60138;55.808;37.078;2022-09-03T08:47:09;2.15;;;1.55;;
70213;SDS011;60138;55.808;37.078;2022-09-03T08:52:33;2.65;;;1.92;;
70213;SDS011;60138;55.808;37.078;2022-09-03T08:55:58;2.73;;;2.50;;
70213;SDS011;60138;55.808;37.078;2022-09-03T08:58:26;2.15;;;1.60;;
70213;SDS011;60138;55.808;37.078;2022-09-03T09:01:06;7.38;;;1.77;;
70213;SDS011;60138;55.808;37.078;2022-09-03T09:03:50;11.10;;;3.90;;
70213;SDS011;60138;55.808;37.078;2022-09-03T09:17:48;6.47;;;2.08;;
70213;SDS011;60138;55.808;37.078;2022-09-03T09:23:25;8.67;;;2.33;;
70213;SDS011;60138;55.808;37.078;2022-09-03T09:26:04;13.40;;;2.10;;
70213;SDS011;60138;55.808;37.078;2022-09-03T09:28:34;4.95;;;2.30;;
70213;SDS011;60138;55.808;37.078;2022-09-03T09:31:02;6.82;;;2.05;;
70213;SDS011;60138;55.808;37.078;2022-09-03T09:33:29;4.18;;;1.70;;
70213;SDS011;60138;55.808;37.078;2022-09-03T09:36:00;2.50;;;1.77;;
70213;SDS011;60138;55.808;37.078;2022-09-03T09:38:30;2.53;;;2.00;;
70213;SDS011;60138;55.808;37.078;2022-09-03T09:41:10;2.08;;;1.45;;
70213;SDS011;60138;55.808;37.078;2022-09-03T09:43:43;2.00;;;1.58;;
70213;SDS011;60138;55.808;37.078;2022-09-03T09:46:13;3.88;;;2.22;;
70213;SDS011;60138;55.808;37.078;2022-09-03T09:51:21;2.70;;;2.10;;
70213;SDS011;60138;55.808;37.078;2022-09-03T09:53:47;3.05;;;1.45;;
70213;SDS011;60138;55.808;37.078;2022-09-03T09:56:24;3.13;;;1.92;;
70213;SDS011;60138;55.808;37.078;2022-09-03T09:59:00;2.22;;;1.60;;
70213;SDS011;60138;55.808;37.078;2022-09-03T10:01:29;1.93;;;1.63;;
70213;SDS011;60138;55.808;37.078;2022-09-03T10:03:55;1.73;;;1.40;;
70213;SDS011;60138;55.808;37.078;2022-09-03T10:06:24;2.90;;;1.65;;
70213;SDS011;60138;55.808;37.078;2022-09-03T10:08:53;3.28;;;1.30;;
70213;SDS011;60138;55.808;37.078;2022-09-03T10:11:41;3.43;;;1.53;;
70213;SDS011;60138;55.808;37.078;2022-09-03T10:14:18;2.33;;;1.30;;
70213;SDS011;60138;55.808;37.078;2022-09-03T10:16:49;2.63;;;2.10;;
70213;SDS011;60138;55.808;37.078;2022-09-03T10:19:27;2.22;;;1.75;;
70213;SDS011;60138;55.808;37.078;2022-09-03T10:22:09;1.73;;;1.48;;
70213;SDS011;60138;55.808;37.078;2022-09-03T10:25:01;4.20;;;2.00;;
70213;SDS011;60138;55.808;37.078;2022-09-03T10:27:28;1.27;;;1.00;;
70213;SDS011;60138;55.808;37.078;2022-09-03T10:29:54;2.80;;;1.23;;
70213;SDS011;60138;55.808;37.078;2022-09-03T10:34:58;1.73;;;1.27;;
70213;SDS011;60138;55.808;37.078;2022-09-03T10:37:39;4.72;;;1.48;;
70213;SDS011;60138;55.808;37.078;2022-09-03T10:46:09;1.92;;;1.63;;
70213;SDS011;60138;55.808;37.078;2022-09-03T10:51:38;2.60;;;1.27;;
70213;SDS011;60138;55.808;37.078;2022-09-03T10:57:31;2.60;;;1.73;;
70213;SDS011;60138;55.808;37.078;2022-09-03T11:00:05;3.03;;;1.42;;
70213;SDS011;60138;55.808;37.078;2022-09-03T11:05:57;1.63;;;1.45;;
70213;SDS011;60138;55.808;37.078;2022-09-03T11:11:22;2.75;;;1.88;;
70213;SDS011;60138;55.808;37.078;2022-09-03T11:14:11;1.73;;;1.48;;
70213;SDS011;60138;55.808;37.078;2022-09-03T11:17:23;4.35;;;1.85;;
70213;SDS011;60138;55.808;37.078;2022-09-03T11:19:44;2.67;;;1.88;;
70213;SDS011;60138;55.808;37.078;2022-09-03T11:22:14;2.53;;;1.50;;
70213;SDS011;60138;55.808;37.078;2022-09-03T11:24:42;2.35;;;1.88;;
70213;SDS011;60138;55.808;37.078;2022-09-03T11:29:42;2.03;;;1.52;;
70213;SDS011;60138;55.808;37.078;2022-09-03T11:32:24;2.03;;;1.77;;
70213;SDS011;60138;55.808;37.078;2022-09-03T11:34:55;4.50;;;1.97;;
70213;SDS011;60138;55.808;37.078;2022-09-03T11:37:22;2.92;;;1.73;;
70213;SDS011;60138;55.808;37.078;2022-09-03T11:39:53;4.03;;;1.60;;
70213;SDS011;60138;55.808;37.078;2022-09-03T11:42:35;4.33;;;2.37;;
70213;SDS011;60138;55.808;37.078;2022-09-03T11:49:10;4.03;;;2.20;;
70213;SDS011;60138;55.808;37.078;2022-09-03T11:51:03;8.60;;;2.35;;
70213;SDS011;60138;55.808;37.078;2022-09-03T11:53:40;5.53;;;1.42;;
70213;SDS011;60138;55.808;37.078;2022-09-03T11:58:38;4.93;;;2.10;;
70213;SDS011;60138;55.808;37.078;2022-09-03T12:01:09;12.73;;;2.63;;
70213;SDS011;60138;55.808;37.078;2022-09-03T12:06:34;2.15;;;1.60;;
70213;SDS011;60138;55.808;37.078;2022-09-03T12:14:46;6.50;;;1.40;;
70213;SDS011;60138;55.808;37.078;2022-09-03T12:20:13;1.95;;;0.80;;
70213;SDS011;60138;55.808;37.078;2022-09-03T12:22:39;3.25;;;1.10;;
70213;SDS011;60138;55.808;37.078;2022-09-03T12:25:12;9.57;;;2.17;;
70213;SDS011;60138;55.808;37.078;2022-09-03T12:27:41;8.65;;;1.60;;
70213;SDS011;60138;55.808;37.078;2022-09-03T12:30:14;2.72;;;0.80;;
70213;SDS011;60138;55.808;37.078;2022-09-03T12:32:42;4.82;;;1.30;;
70213;SDS011;60138;55.808;37.078;2022-09-03T12:37:44;3.10;;;1.23;;
70213;SDS011;60138;55.808;37.078;2022-09-03T12:42:46;1.60;;;0.70;;
70213;SDS011;60138;55.808;37.078;2022-09-03T12:45:12;1.70;;;0.90;;
70213;SDS011;60138;55.808;37.078;2022-09-03T12:47:39;3.40;;;0.88;;
70213;SDS011;60138;55.808;37.078;2022-09-03T12:50:10;4.65;;;1.45;;
70213;SDS011;60138;55.808;37.078;2022-09-03T13:01:30;2.85;;;1.30;;
70213;SDS011;60138;55.808;37.078;2022-09-03T13:03:49;3.70;;;2.28;;
70213;SDS011;60138;55.808;37.078;2022-09-03T13:06:27;4.77;;;1.90;;
70213;SDS011;60138;55.808;37.078;2022-09-03T13:09:07;2.88;;;1.80;;
70213;SDS011;60138;55.808;37.078;2022-09-03T13:11:34;1.63;;;1.00;;
70213;SDS011;60138;55.808;37.078;2022-09-03T13:14:04;2.65;;;0.70;;
70213;SDS011;60138;55.808;37.078;2022-09-03T13:19:07;6.20;;;2.57;;
70213;SDS011;60138;55.808;37.078;2022-09-03T13:37:48;5.00;;;1.63;;
70213;SDS011;60138;55.808;37.078;2022-09-03T13:40:36;3.90;;;1.20;;
70213;SDS011;60138;55.808;37.078;2022-09-03T13:47:04;6.07;;;1.73;;
70213;SDS011;60138;55.808;37.078;2022-09-03T13:50:41;3.53;;;1.10;;
70213;SDS011;60138;55.808;37.078;2022-09-03T13:52:59;3.72;;;1.45;;
70213;SDS011;60138;55.808;37.078;2022-09-03T13:55:36;2.73;;;1.40;;
70213;SDS011;60138;55.808;37.078;2022-09-03T14:01:09;42.88;;;4.75;;
70213;SDS011;60138;55.808;37.078;2022-09-03T14:03:48;23.60;;;3.80;;
70213;SDS011;60138;55.808;37.078;2022-09-03T14:17:36;11.00;;;2.25;;
70213;SDS011;60138;55.808;37.078;2022-09-03T14:20:23;22.60;;;5.03;;
70213;SDS011;60138;55.808;37.078;2022-09-03T14:25:59;3.80;;;1.58;;
70213;SDS011;60138;55.808;37.078;2022-09-03T14:28:37;4.22;;;2.38;;
70213;SDS011;60138;55.808;37.078;2022-09-03T14:36:34;4.73;;;1.70;;
70213;SDS011;60138;55.808;37.078;2022-09-03T14:42:30;5.13;;;2.03;;
70213;SDS011;60138;55.808;37.078;2022-09-03T14:44:53;6.68;;;2.15;;
70213;SDS011;60138;55.808;37.078;2022-09-03T14:52:56;5.10;;;2.40;;
70213;SDS011;60138;55.808;37.078;2022-09-03T15:01:32;6.55;;;1.95;;
70213;SDS011;60138;55.808;37.078;2022-09-03T15:09:36;3.60;;;1.65;;
70213;SDS011;60138;55.808;37.078;2022-09-03T15:32:16;1.70;;;1.30;;
70213;SDS011;60138;55.808;37.078;2022-09-03T15:37:51;10.43;;;2.47;;
70213;SDS011;60138;55.808;37.078;2022-09-03T15:43:20;5.35;;;2.47;;
70213;SDS011;60138;55.808;37.078;2022-09-03T15:48:28;10.63;;;2.05;;
70213;SDS011;60138;55.808;37.078;2022-09-03T15:56:45;4.20;;;2.45;;
70213;SDS011;60138;55.808;37.078;2022-09-03T16:02:17;4.35;;;2.35;;
70213;SDS011;60138;55.808;37.078;2022-09-03T16:15:28;4.10;;;2.20;;
70213;SDS011;60138;55.808;37.078;2022-09-03T16:18:01;3.22;;;2.08;;
70213;SDS011;60138;55.808;37.078;2022-09-03T16:20:43;3.72;;;2.70;;
70213;SDS011;60138;55.808;37.078;2022-09-03T16:25:49;8.50;;;2.20;;
70213;SDS011;60138;55.808;37.078;2022-09-03T16:28:26;5.28;;;1.92;;
70213;SDS011;60138;55.808;37.078;2022-09-03T16:47:50;31.25;;;5.85;;
70213;SDS011;60138;55.808;37.078;2022-09-03T16:56:14;7.78;;;3.70;;
70213;SDS011;60138;55.808;37.078;2022-09-03T17:25:07;8.43;;;4.97;;
70213;SDS011;60138;55.808;37.078;2022-09-03T17:30:38;8.85;;;5.40;;
70213;SDS011;60138;55.808;37.078;2022-09-03T17:46:53;7.30;;;4.15;;
70213;SDS011;60138;55.808;37.078;2022-09-03T17:49:27;6.37;;;4.17;;
70213;SDS011;60138;55.808;37.078;2022-09-03T17:52:01;7.05;;;4.80;;
70213;SDS011;60138;55.808;37.078;2022-09-03T18:00:11;8.53;;;4.10;;
70213;SDS011;60138;55.808;37.078;2022-09-03T18:05:30;6.78;;;4.20;;
70213;SDS011;60138;55.808;37.078;2022-09-03T18:08:11;7.10;;;4.57;;
70213;SDS011;60138;55.808;37.078;2022-09-03T18:10:46;6.82;;;5.07;;
70213;SDS011;60138;55.808;37.078;2022-09-03T18:13:38;6.13;;;4.13;;
70213;SDS011;60138;55.808;37.078;2022-09-03T18:16:27;7.85;;;4.40;;
70213;SDS011;60138;55.808;37.078;2022-09-03T18:21:28;12.77;;;7.13;;
70213;SDS011;60138;55.808;37.078;2022-09-03T18:26:25;10.73;;;5.67;;
70213;SDS011;60138;55.808;37.078;2022-09-03T18:29:02;11.05;;;6.68;;
70213;SDS011;60138;55.808;37.078;2022-09-03T18:31:31;19.70;;;8.90;;
70213;SDS011;60138;55.808;37.078;2022-09-03T18:33:58;20.70;;;10.27;;
70213;SDS011;60138;55.808;37.078;2022-09-03T18:36:23;36.87;;;16.63;;
70213;SDS011;60138;55.808;37.078;2022-09-03T18:38:49;34.72;;;16.02;;
70213;SDS011;60138;55.808;37.078;2022-09-03T18:47:22;21.85;;;8.60;;
70213;SDS011;60138;55.808;37.078;2022-09-03T18:53:37;10.15;;;6.07;;
70213;SDS011;60138;55.808;37.078;2022-09-03T18:56:02;11.07;;;5.90;;
70213;SDS011;60138;55.808;37.078;2022-09-03T18:59:25;22.20;;;14.77;;
70213;SDS011;60138;55.808;37.078;2022-09-03T19:02:06;58.83;;;36.17;;
70213;SDS011;60138;55.808;37.078;2022-09-03T19:10:14;22.83;;;14.40;;
70213;SDS011;60138;55.808;37.078;2022-09-03T19:16:02;20.80;;;14.23;;
70213;SDS011;60138;55.808;37.078;2022-09-03T19:18:44;22.60;;;16.98;;
70213;SDS011;60138;55.808;37.078;2022-09-03T19:21:38;24.48;;;18.23;;
70213;SDS011;60138;55.808;37.078;2022-09-03T19:24:10;27.67;;;20.03;;
70213;SDS011;60138;55.808;37.078;2022-09-03T19:29:12;22.38;;;15.45;;
70213;SDS011;60138;55.808;37.078;2022-09-03T19:31:55;18.48;;;13.25;;
70213;SDS011;60138;55.808;37.078;2022-09-03T19:47:30;14.17;;;7.57;;
70213;SDS011;60138;55.808;37.078;2022-09-03T19:50:19;11.15;;;7.70;;
70213;SDS011;60138;55.808;37.078;2022-09-03T19:55:24;15.00;;;6.95;;
70213;SDS011;60138;55.808;37.078;2022-09-03T19:57:52;11.93;;;7.63;;
70213;SDS011;60138;55.808;37.078;2022-09-03T20:00:22;11.77;;;7.93;;
70213;SDS011;60138;55.808;37.078;2022-09-03T20:02:48;13.15;;;7.60;;
70213;SDS011;60138;55.808;37.078;2022-09-03T20:05:18;13.95;;;8.73;;
70213;SDS011;60138;55.808;37.078;2022-09-03T20:07:46;13.97;;;8.70;;
70213;SDS011;60138;55.808;37.078;2022-09-03T20:10:15;15.32;;;8.50;;
70213;SDS011;60138;55.808;37.078;2022-09-03T20:12:43;16.02;;;10.00;;
70213;SDS011;60138;55.808;37.078;2022-09-03T20:15:12;14.38;;;10.30;;
70213;SDS011;60138;55.808;37.078;2022-09-03T20:20:49;12.13;;;8.07;;
70213;SDS011;60138;55.808;37.078;2022-09-03T20:31:00;12.10;;;7.38;;
70213;SDS011;60138;55.808;37.078;2022-09-03T20:33:47;12.63;;;7.40;;
70213;SDS011;60138;55.808;37.078;2022-09-03T20:39:22;11.05;;;6.40;;
70213;SDS011;60138;55.808;37.078;2022-09-03T20:49:56;9.57;;;6.57;;
70213;SDS011;60138;55.808;37.078;2022-09-03T20:52:44;9.10;;;6.20;;
70213;SDS011;60138;55.808;37.078;2022-09-03T20:55:20;9.73;;;5.80;;
70213;SDS011;60138;55.808;37.078;2022-09-03T20:58:04;8.63;;;5.63;;
70213;SDS011;60138;55.808;37.078;2022-09-03T21:00:42;9.95;;;6.22;;
70213;SDS011;60138;55.808;37.078;2022-09-03T21:03:17;12.77;;;6.97;;
70213;SDS011;60138;55.808;37.078;2022-09-03T21:14:31;11.90;;;6.60;;
70213;SDS011;60138;55.808;37.078;2022-09-03T21:20:36;12.98;;;7.60;;
70213;SDS011;60138;55.808;37.078;2022-09-03T21:28:26;10.32;;;7.13;;
70213;SDS011;60138;55.808;37.078;2022-09-03T21:31:00;9.80;;;6.85;;
70213;SDS011;60138;55.808;37.078;2022-09-03T21:33:30;9.02;;;6.80;;
70213;SDS011;60138;55.808;37.078;2022-09-03T21:36:14;10.63;;;6.77;;
70213;SDS011;60138;55.808;37.078;2022-09-03T21:38:48;8.85;;;6.30;;